Grand Ridge, Florida
Current Conditions -  °F | °C
As of 3:53 PM on Monday 26 Jan 2015 (Local Time) from KMAI Reporting Station
Clear Clear  
Wind Chill: 54°   Ceiling: Unl
Heat Index: 54°   Visibility: 10mi
Dew Point: 37°   Wind: 15mph
Humidity: 53%   Direction: 310°NW
Pressure: 29.94"   Gusts: NA
Location:  30.71°N, 85.02°W
Report Text: KMAI 262153Z AUTO 31013KT 10SM CLR 12/03 A2994 RMK AO2 SLP139 T01220028
Loading
Personal Weather Stations






























Interactive Weather Map New forecast layout! Learn more

10-Day Weather Forecast

Advertisements
Track Severe Weather on mobile